sensor_id;sensor_type;location;lat;lon;timestamp;pressure;altitude;pressure_sealevel;temperature;humidity
70916;BME280;58557;50.982;-3.222;2023-05-10T00:01:10;100634.24;;;12.95;65.70
70916;BME280;58557;50.982;-3.222;2023-05-10T00:03:26;100635.10;;;13.20;65.28
70916;BME280;58557;50.982;-3.222;2023-05-10T00:05:52;100636.65;;;13.68;62.14
70916;BME280;58557;50.982;-3.222;2023-05-10T00:08:19;100635.00;;;13.36;63.92
70916;BME280;58557;50.982;-3.222;2023-05-10T00:10:43;100633.66;;;12.39;67.28
70916;BME280;58557;50.982;-3.222;2023-05-10T00:13:17;100631.65;;;12.74;67.12
70916;BME280;58557;50.982;-3.222;2023-05-10T00:15:33;100627.43;;;13.02;66.53
70916;BME280;58557;50.982;-3.222;2023-05-10T00:17:58;100629.41;;;13.12;66.37
70916;BME280;58557;50.982;-3.222;2023-05-10T00:20:24;100626.18;;;12.64;67.47
70916;BME280;58557;50.982;-3.222;2023-05-10T00:22:49;100627.01;;;12.99;65.31
70916;BME280;58557;50.982;-3.222;2023-05-10T00:25:14;100630.83;;;13.83;65.00
70916;BME280;58557;50.982;-3.222;2023-05-10T00:27:40;100626.36;;;13.83;63.81
70916;BME280;58557;50.982;-3.222;2023-05-10T00:30:06;100626.01;;;14.09;61.96
70916;BME280;58557;50.982;-3.222;2023-05-10T00:32:31;100622.12;;;12.82;67.41
70916;BME280;58557;50.982;-3.222;2023-05-10T00:34:57;100622.00;;;13.20;66.31
70916;BME280;58557;50.982;-3.222;2023-05-10T00:37:22;100621.97;;;12.64;67.50
70916;BME280;58557;50.982;-3.222;2023-05-10T00:39:49;100622.04;;;12.02;70.50
70916;BME280;58557;50.982;-3.222;2023-05-10T00:42:13;100618.82;;;12.10;69.75
70916;BME280;58557;50.982;-3.222;2023-05-10T00:44:39;100618.12;;;12.59;69.14
70916;BME280;58557;50.982;-3.222;2023-05-10T00:47:06;100616.88;;;13.20;65.81
70916;BME280;58557;50.982;-3.222;2023-05-10T00:49:29;100613.12;;;14.08;63.05
70916;BME280;58557;50.982;-3.222;2023-05-10T00:51:55;100608.58;;;12.81;66.94
70916;BME280;58557;50.982;-3.222;2023-05-10T00:54:20;100606.36;;;13.18;65.83
70916;BME280;58557;50.982;-3.222;2023-05-10T00:56:46;100608.05;;;13.36;65.65
70916;BME280;58557;50.982;-3.222;2023-05-10T00:59:12;100607.20;;;12.93;66.90
70916;BME280;58557;50.982;-3.222;2023-05-10T01:01:38;100606.05;;;12.21;69.72
70916;BME280;58557;50.982;-3.222;2023-05-10T01:04:03;100605.78;;;12.33;67.72
70916;BME280;58557;50.982;-3.222;2023-05-10T01:06:28;100605.54;;;12.63;68.44
70916;BME280;58557;50.982;-3.222;2023-05-10T01:08:54;100608.06;;;12.18;69.57
70916;BME280;58557;50.982;-3.222;2023-05-10T01:11:21;100612.88;;;11.61;71.96
70916;BME280;58557;50.982;-3.222;2023-05-10T01:13:50;100618.49;;;11.12;74.28
70916;BME280;58557;50.982;-3.222;2023-05-10T01:16:10;100614.62;;;12.04;71.28
70916;BME280;58557;50.982;-3.222;2023-05-10T01:18:41;100615.52;;;13.09;67.10
70916;BME280;58557;50.982;-3.222;2023-05-10T01:21:12;100618.26;;;13.31;67.51
70916;BME280;58557;50.982;-3.222;2023-05-10T01:23:44;100612.55;;;14.36;61.23
70916;BME280;58557;50.982;-3.222;2023-05-10T01:26:02;100616.59;;;13.08;65.50
70916;BME280;58557;50.982;-3.222;2023-05-10T01:33:11;100606.91;;;13.89;62.57
70916;BME280;58557;50.982;-3.222;2023-05-10T01:35:39;100605.80;;;13.16;65.22
70916;BME280;58557;50.982;-3.222;2023-05-10T01:38:07;100604.70;;;14.16;63.58
70916;BME280;58557;50.982;-3.222;2023-05-10T01:40:32;100605.30;;;12.44;69.59
70916;BME280;58557;50.982;-3.222;2023-05-10T01:42:55;100604.94;;;13.69;64.77
70916;BME280;58557;50.982;-3.222;2023-05-10T01:45:22;100603.29;;;13.78;65.19
70916;BME280;58557;50.982;-3.222;2023-05-10T01:47:43;100603.47;;;13.93;63.36
70916;BME280;58557;50.982;-3.222;2023-05-10T01:50:19;100607.53;;;13.46;64.86
70916;BME280;58557;50.982;-3.222;2023-05-10T01:52:36;100611.72;;;13.27;66.03
70916;BME280;58557;50.982;-3.222;2023-05-10T01:55:02;100616.23;;;11.68;70.91
70916;BME280;58557;50.982;-3.222;2023-05-10T01:57:26;100611.68;;;13.31;67.01
70916;BME280;58557;50.982;-3.222;2023-05-10T01:59:50;100613.87;;;13.57;65.87
70916;BME280;58557;50.982;-3.222;2023-05-10T02:02:15;100614.52;;;13.78;64.70
70916;BME280;58557;50.982;-3.222;2023-05-10T02:04:40;100614.11;;;12.04;68.98
70916;BME280;58557;50.982;-3.222;2023-05-10T02:07:06;100615.29;;;14.08;62.34
70916;BME280;58557;50.982;-3.222;2023-05-10T02:09:32;100611.75;;;14.42;60.44
70916;BME280;58557;50.982;-3.222;2023-05-10T02:11:58;100617.88;;;13.07;64.39
70916;BME280;58557;50.982;-3.222;2023-05-10T02:14:22;100618.55;;;14.02;63.62
70916;BME280;58557;50.982;-3.222;2023-05-10T02:16:48;100614.39;;;13.67;63.13
70916;BME280;58557;50.982;-3.222;2023-05-10T02:19:14;100617.78;;;14.10;60.59
70916;BME280;58557;50.982;-3.222;2023-05-10T02:21:39;100618.53;;;12.69;65.77
70916;BME280;58557;50.982;-3.222;2023-05-10T02:24:04;100621.69;;;12.83;64.60
70916;BME280;58557;50.982;-3.222;2023-05-10T02:26:36;100620.79;;;13.47;62.23
70916;BME280;58557;50.982;-3.222;2023-05-10T02:28:55;100624.31;;;14.41;59.58
70916;BME280;58557;50.982;-3.222;2023-05-10T02:31:21;100625.54;;;13.78;59.60
70916;BME280;58557;50.982;-3.222;2023-05-10T02:33:46;100622.00;;;14.77;56.91
70916;BME280;58557;50.982;-3.222;2023-05-10T02:36:12;100620.42;;;14.78;57.93
70916;BME280;58557;50.982;-3.222;2023-05-10T02:38:40;100624.10;;;15.04;57.00
70916;BME280;58557;50.982;-3.222;2023-05-10T02:41:05;100623.96;;;12.73;62.63
70916;BME280;58557;50.982;-3.222;2023-05-10T02:43:30;100617.36;;;14.34;59.12
70916;BME280;58557;50.982;-3.222;2023-05-10T02:45:54;100614.06;;;15.09;57.91
70916;BME280;58557;50.982;-3.222;2023-05-10T02:48:19;100616.44;;;15.23;56.55
70916;BME280;58557;50.982;-3.222;2023-05-10T02:50:45;100612.78;;;14.21;60.88
70916;BME280;58557;50.982;-3.222;2023-05-10T02:53:14;100616.79;;;13.40;62.23
70916;BME280;58557;50.982;-3.222;2023-05-10T02:55:38;100611.33;;;13.34;61.88
70916;BME280;58557;50.982;-3.222;2023-05-10T02:58:02;100611.44;;;13.42;60.39
70916;BME280;58557;50.982;-3.222;2023-05-10T03:00:26;100611.27;;;13.94;62.37
70916;BME280;58557;50.982;-3.222;2023-05-10T03:02:52;100613.64;;;13.47;62.83
70916;BME280;58557;50.982;-3.222;2023-05-10T03:05:18;100614.75;;;14.66;57.66
70916;BME280;58557;50.982;-3.222;2023-05-10T03:07:43;100613.20;;;14.21;59.44
70916;BME280;58557;50.982;-3.222;2023-05-10T03:10:09;100616.94;;;12.37;67.27
70916;BME280;58557;50.982;-3.222;2023-05-10T03:12:47;100612.53;;;11.98;70.71
70916;BME280;58557;50.982;-3.222;2023-05-10T03:15:06;100614.38;;;12.33;68.92
70916;BME280;58557;50.982;-3.222;2023-05-10T03:17:34;100611.78;;;13.43;64.94
70916;BME280;58557;50.982;-3.222;2023-05-10T03:19:54;100609.35;;;12.15;69.50
70916;BME280;58557;50.982;-3.222;2023-05-10T03:22:24;100612.36;;;12.81;67.49
70916;BME280;58557;50.982;-3.222;2023-05-10T03:24:42;100610.88;;;12.24;69.22
70916;BME280;58557;50.982;-3.222;2023-05-10T03:27:08;100611.96;;;12.96;68.25
70916;BME280;58557;50.982;-3.222;2023-05-10T03:29:33;100610.09;;;12.58;68.72
70916;BME280;58557;50.982;-3.222;2023-05-10T03:31:59;100610.99;;;12.26;69.33
70916;BME280;58557;50.982;-3.222;2023-05-10T03:34:24;100614.05;;;12.83;69.03
70916;BME280;58557;50.982;-3.222;2023-05-10T03:36:50;100616.29;;;11.59;72.55
70916;BME280;58557;50.982;-3.222;2023-05-10T03:39:15;100615.31;;;13.06;67.36
70916;BME280;58557;50.982;-3.222;2023-05-10T03:41:41;100616.78;;;12.54;68.05
70916;BME280;58557;50.982;-3.222;2023-05-10T03:44:06;100619.68;;;11.89;71.29
70916;BME280;58557;50.982;-3.222;2023-05-10T03:46:32;100621.67;;;12.20;68.56
70916;BME280;58557;50.982;-3.222;2023-05-10T03:48:57;100622.22;;;12.70;67.14
70916;BME280;58557;50.982;-3.222;2023-05-10T03:51:23;100624.13;;;12.37;67.03
70916;BME280;58557;50.982;-3.222;2023-05-10T03:53:48;100630.09;;;13.75;66.59
70916;BME280;58557;50.982;-3.222;2023-05-10T03:56:14;100629.67;;;13.03;66.37
70916;BME280;58557;50.982;-3.222;2023-05-10T03:58:39;100632.08;;;12.26;67.15
70916;BME280;58557;50.982;-3.222;2023-05-10T04:01:04;100633.48;;;12.90;65.46
70916;BME280;58557;50.982;-3.222;2023-05-10T04:03:30;100634.18;;;12.17;70.04
70916;BME280;58557;50.982;-3.222;2023-05-10T04:06:00;100640.27;;;11.04;74.50
70916;BME280;58557;50.982;-3.222;2023-05-10T04:08:21;100636.58;;;12.78;69.14
70916;BME280;58557;50.982;-3.222;2023-05-10T04:10:52;100636.14;;;13.07;68.31
70916;BME280;58557;50.982;-3.222;2023-05-10T04:13:17;100634.42;;;12.14;70.43
70916;BME280;58557;50.982;-3.222;2023-05-10T04:15:38;100637.85;;;12.71;72.88
70916;BME280;58557;50.982;-3.222;2023-05-10T04:18:03;100636.28;;;13.39;68.72
70916;BME280;58557;50.982;-3.222;2023-05-10T04:20:28;100633.51;;;13.69;64.15
70916;BME280;58557;50.982;-3.222;2023-05-10T04:23:20;100626.47;;;14.25;61.97
70916;BME280;58557;50.982;-3.222;2023-05-10T04:25:25;100629.73;;;14.77;59.74
70916;BME280;58557;50.982;-3.222;2023-05-10T04:27:44;100631.51;;;15.51;57.86
70916;BME280;58557;50.982;-3.222;2023-05-10T04:30:11;100633.37;;;15.24;55.60
70916;BME280;58557;50.982;-3.222;2023-05-10T04:32:36;100632.15;;;14.97;57.45
70916;BME280;58557;50.982;-3.222;2023-05-10T04:35:02;100636.79;;;16.16;53.53
70916;BME280;58557;50.982;-3.222;2023-05-10T04:37:27;100633.72;;;14.63;58.07
70916;BME280;58557;50.982;-3.222;2023-05-10T04:39:52;100638.41;;;15.55;57.71
70916;BME280;58557;50.982;-3.222;2023-05-10T04:42:23;100636.28;;;15.78;57.30
70916;BME280;58557;50.982;-3.222;2023-05-10T04:44:57;100634.59;;;16.28;54.61
70916;BME280;58557;50.982;-3.222;2023-05-10T04:47:10;100630.15;;;14.37;59.03
70916;BME280;58557;50.982;-3.222;2023-05-10T04:49:35;100633.33;;;15.81;56.56
70916;BME280;58557;50.982;-3.222;2023-05-10T04:52:00;100632.92;;;15.56;56.27
70916;BME280;58557;50.982;-3.222;2023-05-10T04:54:27;100635.83;;;15.73;55.30
70916;BME280;58557;50.982;-3.222;2023-05-10T04:56:55;100634.71;;;15.34;56.75
70916;BME280;58557;50.982;-3.222;2023-05-10T04:59:46;100633.27;;;16.27;54.56
70916;BME280;58557;50.982;-3.222;2023-05-10T05:01:50;100629.07;;;16.90;54.05
70916;BME280;58557;50.982;-3.222;2023-05-10T05:04:19;100634.71;;;16.42;52.18
70916;BME280;58557;50.982;-3.222;2023-05-10T05:06:34;100646.63;;;15.76;56.23
70916;BME280;58557;50.982;-3.222;2023-05-10T05:08:59;100647.62;;;16.28;53.59
70916;BME280;58557;50.982;-3.222;2023-05-10T05:11:25;100645.86;;;15.51;55.94
70916;BME280;58557;50.982;-3.222;2023-05-10T05:13:51;100645.18;;;16.22;54.21
70916;BME280;58557;50.982;-3.222;2023-05-10T05:16:17;100645.06;;;16.07;54.14
70916;BME280;58557;50.982;-3.222;2023-05-10T05:18:43;100643.80;;;15.69;54.96
70916;BME280;58557;50.982;-3.222;2023-05-10T05:21:14;100645.84;;;16.52;53.47
70916;BME280;58557;50.982;-3.222;2023-05-10T05:23:40;100649.91;;;16.55;52.73
70916;BME280;58557;50.982;-3.222;2023-05-10T05:25:57;100652.36;;;15.35;54.66
70916;BME280;58557;50.982;-3.222;2023-05-10T05:28:23;100657.27;;;15.47;56.94
70916;BME280;58557;50.982;-3.222;2023-05-10T05:30:49;100659.10;;;16.45;54.91
70916;BME280;58557;50.982;-3.222;2023-05-10T05:33:14;100660.13;;;16.52;53.84
70916;BME280;58557;50.982;-3.222;2023-05-10T05:35:40;100658.46;;;15.40;57.68
70916;BME280;58557;50.982;-3.222;2023-05-10T05:38:05;100661.98;;;16.05;55.31
70916;BME280;58557;50.982;-3.222;2023-05-10T05:40:31;100666.56;;;15.21;57.34
70916;BME280;58557;50.982;-3.222;2023-05-10T05:43:02;100671.51;;;16.03;54.36
70916;BME280;58557;50.982;-3.222;2023-05-10T05:45:22;100672.31;;;14.06;61.08
70916;BME280;58557;50.982;-3.222;2023-05-10T05:47:48;100678.48;;;16.09;58.39
70916;BME280;58557;50.982;-3.222;2023-05-10T05:50:13;100676.88;;;15.01;59.37
70916;BME280;58557;50.982;-3.222;2023-05-10T05:52:39;100683.32;;;16.26;55.60
70916;BME280;58557;50.982;-3.222;2023-05-10T05:55:04;100682.99;;;16.30;54.63
70916;BME280;58557;50.982;-3.222;2023-05-10T05:57:29;100686.94;;;17.17;54.18
70916;BME280;58557;50.982;-3.222;2023-05-10T05:59:54;100684.25;;;16.34;53.34
70916;BME280;58557;50.982;-3.222;2023-05-10T06:02:20;100675.70;;;17.31;53.12
70916;BME280;58557;50.982;-3.222;2023-05-10T06:04:46;100680.23;;;16.66;53.18
70916;BME280;58557;50.982;-3.222;2023-05-10T06:07:11;100677.94;;;17.65;52.60
70916;BME280;58557;50.982;-3.222;2023-05-10T06:09:36;100682.64;;;14.76;57.44
70916;BME280;58557;50.982;-3.222;2023-05-10T06:12:02;100684.86;;;14.80;59.34
70916;BME280;58557;50.982;-3.222;2023-05-10T06:14:28;100689.83;;;16.00;57.45
70916;BME280;58557;50.982;-3.222;2023-05-10T06:16:54;100691.25;;;16.53;56.45
70916;BME280;58557;50.982;-3.222;2023-05-10T06:19:18;100692.93;;;16.35;56.08
70916;BME280;58557;50.982;-3.222;2023-05-10T06:21:49;100691.27;;;16.23;57.22
70916;BME280;58557;50.982;-3.222;2023-05-10T06:24:10;100695.77;;;16.23;57.13
70916;BME280;58557;50.982;-3.222;2023-05-10T06:26:35;100698.73;;;16.00;57.35
70916;BME280;58557;50.982;-3.222;2023-05-10T06:29:01;100702.33;;;15.92;57.34
70916;BME280;58557;50.982;-3.222;2023-05-10T06:31:26;100701.63;;;15.42;57.46
70916;BME280;58557;50.982;-3.222;2023-05-10T06:33:51;100704.34;;;13.77;66.10
70916;BME280;58557;50.982;-3.222;2023-05-10T06:36:18;100702.39;;;14.91;62.06
70916;BME280;58557;50.982;-3.222;2023-05-10T06:38:42;100708.38;;;15.89;60.05
70916;BME280;58557;50.982;-3.222;2023-05-10T06:41:08;100706.86;;;16.82;57.22
70916;BME280;58557;50.982;-3.222;2023-05-10T06:43:33;100711.24;;;15.56;60.38
70916;BME280;58557;50.982;-3.222;2023-05-10T06:45:59;100715.30;;;16.17;58.66
70916;BME280;58557;50.982;-3.222;2023-05-10T06:48:26;100718.13;;;15.38;61.29
70916;BME280;58557;50.982;-3.222;2023-05-10T06:50:50;100719.46;;;14.15;63.86
70916;BME280;58557;50.982;-3.222;2023-05-10T06:53:16;100723.05;;;15.69;60.75
70916;BME280;58557;50.982;-3.222;2023-05-10T06:55:41;100722.38;;;15.41;62.80
70916;BME280;58557;50.982;-3.222;2023-05-10T06:58:07;100718.91;;;14.83;62.64
70916;BME280;58557;50.982;-3.222;2023-05-10T07:00:33;100716.58;;;14.93;64.40
70916;BME280;58557;50.982;-3.222;2023-05-10T07:02:59;100719.08;;;13.93;64.59
70916;BME280;58557;50.982;-3.222;2023-05-10T07:05:24;100719.93;;;14.16;64.40
70916;BME280;58557;50.982;-3.222;2023-05-10T07:07:49;100728.48;;;13.67;68.53
70916;BME280;58557;50.982;-3.222;2023-05-10T07:10:15;100737.28;;;13.35;69.64
70916;BME280;58557;50.982;-3.222;2023-05-10T07:12:40;100736.49;;;13.48;69.76
70916;BME280;58557;50.982;-3.222;2023-05-10T07:15:07;100745.19;;;12.28;72.77
70916;BME280;58557;50.982;-3.222;2023-05-10T07:17:31;100739.67;;;13.81;70.44
70916;BME280;58557;50.982;-3.222;2023-05-10T07:19:57;100742.14;;;13.49;70.46
70916;BME280;58557;50.982;-3.222;2023-05-10T07:22:22;100743.07;;;13.03;71.54
70916;BME280;58557;50.982;-3.222;2023-05-10T07:24:48;100744.05;;;14.17;69.77
70916;BME280;58557;50.982;-3.222;2023-05-10T07:27:19;100739.59;;;14.47;66.44
70916;BME280;58557;50.982;-3.222;2023-05-10T07:29:39;100737.86;;;14.70;66.75
70916;BME280;58557;50.982;-3.222;2023-05-10T07:32:06;100742.21;;;13.99;66.50
70916;BME280;58557;50.982;-3.222;2023-05-10T07:34:31;100740.94;;;15.30;65.24
70916;BME280;58557;50.982;-3.222;2023-05-10T07:36:59;100741.29;;;16.03;63.68
70916;BME280;58557;50.982;-3.222;2023-05-10T07:39:22;100741.80;;;16.92;59.64
70916;BME280;58557;50.982;-3.222;2023-05-10T07:41:47;100741.35;;;15.29;64.37
70916;BME280;58557;50.982;-3.222;2023-05-10T07:44:13;100740.98;;;14.93;65.93
70916;BME280;58557;50.982;-3.222;2023-05-10T07:46:38;100735.05;;;14.96;65.00
70916;BME280;58557;50.982;-3.222;2023-05-10T07:49:04;100738.58;;;15.17;63.66
70916;BME280;58557;50.982;-3.222;2023-05-10T07:51:30;100737.51;;;15.77;60.52
70916;BME280;58557;50.982;-3.222;2023-05-10T07:53:56;100736.91;;;15.42;62.51
70916;BME280;58557;50.982;-3.222;2023-05-10T07:56:24;100736.40;;;15.47;63.04
70916;BME280;58557;50.982;-3.222;2023-05-10T07:58:47;100739.32;;;14.45;67.75
70916;BME280;58557;50.982;-3.222;2023-05-10T08:01:13;100734.10;;;13.18;68.55
70916;BME280;58557;50.982;-3.222;2023-05-10T08:03:38;100735.61;;;13.59;69.24
70916;BME280;58557;50.982;-3.222;2023-05-10T08:06:04;100735.23;;;14.37;68.13
70916;BME280;58557;50.982;-3.222;2023-05-10T08:08:29;100732.53;;;15.59;62.24
70916;BME280;58557;50.982;-3.222;2023-05-10T08:10:54;100735.33;;;14.57;62.15
70916;BME280;58557;50.982;-3.222;2023-05-10T08:13:21;100738.51;;;13.04;70.06
70916;BME280;58557;50.982;-3.222;2023-05-10T08:15:45;100737.24;;;14.17;67.23
70916;BME280;58557;50.982;-3.222;2023-05-10T08:18:11;100740.56;;;14.36;64.17
70916;BME280;58557;50.982;-3.222;2023-05-10T08:20:37;100735.08;;;13.07;69.70
70916;BME280;58557;50.982;-3.222;2023-05-10T08:23:02;100742.03;;;12.30;73.65
70916;BME280;58557;50.982;-3.222;2023-05-10T08:25:27;100739.49;;;14.34;66.58
70916;BME280;58557;50.982;-3.222;2023-05-10T08:27:52;100734.89;;;13.33;69.05
70916;BME280;58557;50.982;-3.222;2023-05-10T08:30:18;100740.36;;;14.25;66.13
70916;BME280;58557;50.982;-3.222;2023-05-10T08:32:43;100739.91;;;14.93;65.78
70916;BME280;58557;50.982;-3.222;2023-05-10T08:35:09;100742.66;;;14.22;66.10
70916;BME280;58557;50.982;-3.222;2023-05-10T08:37:34;100741.92;;;15.94;66.24
70916;BME280;58557;50.982;-3.222;2023-05-10T08:40:01;100741.77;;;17.11;56.03
70916;BME280;58557;50.982;-3.222;2023-05-10T08:42:26;100737.81;;;15.99;58.14
70916;BME280;58557;50.982;-3.222;2023-05-10T08:44:52;100736.94;;;16.32;58.13
70916;BME280;58557;50.982;-3.222;2023-05-10T08:47:18;100735.16;;;15.00;60.71
70916;BME280;58557;50.982;-3.222;2023-05-10T08:49:42;100740.64;;;16.36;57.64
70916;BME280;58557;50.982;-3.222;2023-05-10T08:52:08;100741.06;;;16.65;56.82
70916;BME280;58557;50.982;-3.222;2023-05-10T08:54:33;100744.86;;;15.79;56.72
70916;BME280;58557;50.982;-3.222;2023-05-10T08:57:04;100745.52;;;16.05;56.47
70916;BME280;58557;50.982;-3.222;2023-05-10T08:59:30;100748.36;;;16.33;55.64
70916;BME280;58557;50.982;-3.222;2023-05-10T09:01:50;100749.77;;;15.18;61.76
70916;BME280;58557;50.982;-3.222;2023-05-10T09:04:15;100749.43;;;14.53;59.99
70916;BME280;58557;50.982;-3.222;2023-05-10T09:06:41;100753.20;;;15.16;59.18
70916;BME280;58557;50.982;-3.222;2023-05-10T09:09:06;100759.15;;;15.24;61.24
70916;BME280;58557;50.982;-3.222;2023-05-10T09:11:31;100757.53;;;14.69;63.34
70916;BME280;58557;50.982;-3.222;2023-05-10T09:13:57;100757.97;;;15.79;60.44
70916;BME280;58557;50.982;-3.222;2023-05-10T09:16:23;100761.45;;;14.90;61.83
70916;BME280;58557;50.982;-3.222;2023-05-10T09:18:50;100761.75;;;13.74;67.04
70916;BME280;58557;50.982;-3.222;2023-05-10T09:23:43;100759.69;;;14.84;65.02
70916;BME280;58557;50.982;-3.222;2023-05-10T09:26:05;100762.72;;;14.19;62.80
70916;BME280;58557;50.982;-3.222;2023-05-10T09:28:32;100758.88;;;14.59;59.81
70916;BME280;58557;50.982;-3.222;2023-05-10T09:30:56;100759.24;;;15.93;58.22
70916;BME280;58557;50.982;-3.222;2023-05-10T09:33:27;100763.02;;;16.80;56.58
70916;BME280;58557;50.982;-3.222;2023-05-10T09:35:52;100764.03;;;15.41;58.40
70916;BME280;58557;50.982;-3.222;2023-05-10T09:38:13;100770.08;;;16.70;55.90
70916;BME280;58557;50.982;-3.222;2023-05-10T09:40:39;100777.16;;;15.59;60.20
70916;BME280;58557;50.982;-3.222;2023-05-10T09:43:06;100781.87;;;14.87;64.53
70916;BME280;58557;50.982;-3.222;2023-05-10T09:45:35;100774.32;;;12.56;71.05
70916;BME280;58557;50.982;-3.222;2023-05-10T09:47:56;100778.27;;;15.52;65.08
70916;BME280;58557;50.982;-3.222;2023-05-10T09:50:23;100782.29;;;15.20;66.88
70916;BME280;58557;50.982;-3.222;2023-05-10T09:52:48;100781.18;;;13.96;70.29
70916;BME280;58557;50.982;-3.222;2023-05-10T09:55:21;100779.34;;;14.11;70.77
70916;BME280;58557;50.982;-3.222;2023-05-10T09:57:38;100776.06;;;15.73;65.90
70916;BME280;58557;50.982;-3.222;2023-05-10T10:00:04;100778.95;;;15.45;66.79
70916;BME280;58557;50.982;-3.222;2023-05-10T10:02:29;100776.87;;;16.52;65.51
70916;BME280;58557;50.982;-3.222;2023-05-10T10:04:55;100777.09;;;16.41;68.41
70916;BME280;58557;50.982;-3.222;2023-05-10T10:07:23;100780.99;;;16.81;64.58
70916;BME280;58557;50.982;-3.222;2023-05-10T10:09:45;100776.76;;;15.59;64.71
70916;BME280;58557;50.982;-3.222;2023-05-10T10:12:11;100773.72;;;17.00;62.46
70916;BME280;58557;50.982;-3.222;2023-05-10T10:14:37;100770.17;;;16.48;60.91
70916;BME280;58557;50.982;-3.222;2023-05-10T10:17:03;100766.07;;;17.18;61.56
70916;BME280;58557;50.982;-3.222;2023-05-10T10:19:28;100769.98;;;16.29;62.23
70916;BME280;58557;50.982;-3.222;2023-05-10T10:21:54;100767.95;;;17.16;60.12
70916;BME280;58557;50.982;-3.222;2023-05-10T10:24:19;100762.38;;;15.92;62.30
70916;BME280;58557;50.982;-3.222;2023-05-10T10:26:47;100766.29;;;16.67;61.92
70916;BME280;58557;50.982;-3.222;2023-05-10T10:29:19;100765.84;;;17.55;59.26
70916;BME280;58557;50.982;-3.222;2023-05-10T10:31:40;100765.93;;;17.06;59.22
70916;BME280;58557;50.982;-3.222;2023-05-10T10:34:05;100762.14;;;17.61;59.36
70916;BME280;58557;50.982;-3.222;2023-05-10T10:36:28;100764.02;;;17.61;56.47
70916;BME280;58557;50.982;-3.222;2023-05-10T10:38:57;100768.66;;;18.26;55.85
70916;BME280;58557;50.982;-3.222;2023-05-10T10:41:27;100771.04;;;15.77;57.58
70916;BME280;58557;50.982;-3.222;2023-05-10T10:43:44;100772.63;;;15.41;63.07
70916;BME280;58557;50.982;-3.222;2023-05-10T10:46:12;100771.96;;;16.16;63.00
70916;BME280;58557;50.982;-3.222;2023-05-10T10:48:35;100767.78;;;15.98;64.04
70916;BME280;58557;50.982;-3.222;2023-05-10T10:51:01;100768.37;;;16.56;59.15
70916;BME280;58557;50.982;-3.222;2023-05-10T10:53:27;100767.60;;;16.61;58.21
70916;BME280;58557;50.982;-3.222;2023-05-10T10:56:05;100770.70;;;16.94;60.36
70916;BME280;58557;50.982;-3.222;2023-05-10T10:58:30;100767.78;;;16.03;62.57
70916;BME280;58557;50.982;-3.222;2023-05-10T11:00:43;100764.01;;;18.10;57.69
70916;BME280;58557;50.982;-3.222;2023-05-10T11:03:11;100761.01;;;17.71;56.07
70916;BME280;58557;50.982;-3.222;2023-05-10T11:05:38;100769.83;;;17.54;54.71
70916;BME280;58557;50.982;-3.222;2023-05-10T11:08:09;100768.01;;;15.41;62.40
70916;BME280;58557;50.982;-3.222;2023-05-10T11:10:27;100770.33;;;16.10;56.53
70916;BME280;58557;50.982;-3.222;2023-05-10T11:12:52;100775.56;;;16.49;57.81
70916;BME280;58557;50.982;-3.222;2023-05-10T11:15:16;100773.48;;;16.18;58.39
70916;BME280;58557;50.982;-3.222;2023-05-10T11:17:42;100773.14;;;17.14;57.17
70916;BME280;58557;50.982;-3.222;2023-05-10T11:20:08;100777.85;;;17.04;56.12
70916;BME280;58557;50.982;-3.222;2023-05-10T11:24:59;100776.55;;;15.57;59.56
70916;BME280;58557;50.982;-3.222;2023-05-10T11:27:25;100778.25;;;15.37;59.92
70916;BME280;58557;50.982;-3.222;2023-05-10T11:29:51;100779.80;;;16.12;56.26
70916;BME280;58557;50.982;-3.222;2023-05-10T11:32:15;100777.49;;;16.72;56.29
70916;BME280;58557;50.982;-3.222;2023-05-10T11:34:41;100775.13;;;17.09;53.14
70916;BME280;58557;50.982;-3.222;2023-05-10T11:37:11;100772.61;;;16.14;54.36
70916;BME280;58557;50.982;-3.222;2023-05-10T11:39:32;100778.89;;;16.08;57.80
70916;BME280;58557;50.982;-3.222;2023-05-10T11:41:58;100772.84;;;15.73;58.75
70916;BME280;58557;50.982;-3.222;2023-05-10T11:44:24;100772.57;;;18.35;52.67
70916;BME280;58557;50.982;-3.222;2023-05-10T11:46:49;100779.99;;;16.27;56.24
70916;BME280;58557;50.982;-3.222;2023-05-10T11:49:15;100776.99;;;16.04;60.43
70916;BME280;58557;50.982;-3.222;2023-05-10T11:51:40;100778.08;;;15.86;55.24
70916;BME280;58557;50.982;-3.222;2023-05-10T11:54:07;100783.15;;;17.41;53.38
70916;BME280;58557;50.982;-3.222;2023-05-10T11:56:33;100782.69;;;16.23;55.65
70916;BME280;58557;50.982;-3.222;2023-05-10T11:58:57;100783.01;;;16.83;53.63
70916;BME280;58557;50.982;-3.222;2023-05-10T12:01:24;100782.03;;;15.91;54.40
70916;BME280;58557;50.982;-3.222;2023-05-10T12:03:49;100781.05;;;16.38;52.48
70916;BME280;58557;50.982;-3.222;2023-05-10T12:06:14;100774.53;;;15.87;53.03
70916;BME280;58557;50.982;-3.222;2023-05-10T12:08:44;100783.86;;;15.35;56.97
70916;BME280;58557;50.982;-3.222;2023-05-10T12:11:07;100782.50;;;16.17;54.82
70916;BME280;58557;50.982;-3.222;2023-05-10T12:13:31;100781.11;;;15.88;54.74
70916;BME280;58557;50.982;-3.222;2023-05-10T12:15:58;100781.85;;;14.86;56.60
70916;BME280;58557;50.982;-3.222;2023-05-10T12:18:27;100780.51;;;16.05;52.95
70916;BME280;58557;50.982;-3.222;2023-05-10T12:20:52;100791.65;;;16.61;52.06
70916;BME280;58557;50.982;-3.222;2023-05-10T12:23:14;100784.87;;;16.16;53.97
70916;BME280;58557;50.982;-3.222;2023-05-10T12:25:39;100789.07;;;14.92;56.01
70916;BME280;58557;50.982;-3.222;2023-05-10T12:28:06;100790.73;;;15.81;56.08
70916;BME280;58557;50.982;-3.222;2023-05-10T12:30:32;100788.93;;;14.61;56.21
70916;BME280;58557;50.982;-3.222;2023-05-10T12:33:01;100790.19;;;15.91;53.27
70916;BME280;58557;50.982;-3.222;2023-05-10T12:35:21;100793.25;;;17.32;50.67
70916;BME280;58557;50.982;-3.222;2023-05-10T12:37:48;100795.79;;;17.00;49.77
70916;BME280;58557;50.982;-3.222;2023-05-10T12:40:13;100795.74;;;16.57;50.79